RJNO(METAR)
08/22 16:00
RJNO 220700Z 26010G20KT 9999 FEW025 SCTXXX 30/24 Q1012 RMK A2991=
戻る
トップページへ戻る
IMOC Co,.Ltd.